SWA2612 KMDW-KCLE
Flight info
| Callsign | SWA2612 |
|---|---|
| Flight time | 0h 47m |
| Altitude | 33000 |
| Route | LEWKE ZIINE BENJO BRWNZ4 |
| Aircraft | B738/M-SDE2E3FGHIRWXY/LB1 |
Departure
| Time | 2026-05-03 23:54 |
|---|---|
| Airport | Chicago Midway International Airport (KMDW) |
Arrival
| Time | 2026-05-04 00:41 |
|---|---|
| Airport | Cleveland Hopkins International Airport (KCLE) |
| Time | Latitude | Longitude | Altitude | Speed | Heading |
|---|---|---|---|---|---|
| 2026-05-03 23:24 | 41.78640 | -87.74501 | 619 ft | 0 kts | 315° |
| 2026-05-03 23:40 | 41.78636 | -87.74496 | 619 ft | 2 kts | 313° |
| 2026-05-03 23:40 | 41.78624 | -87.74480 | 625 ft | 2 kts | 314° |
| 2026-05-03 23:40 | 41.78615 | -87.74461 | 622 ft | 2 kts | 261° |
| 2026-05-03 23:40 | 41.78621 | -87.74444 | 621 ft | 1 kts | 226° |
| 2026-05-03 23:41 | 41.78623 | -87.74442 | 621 ft | 0 kts | 225° |
| 2026-05-03 23:47 | 41.78612 | -87.74455 | 630 ft | 8 kts | 222° |
| 2026-05-03 23:47 | 41.78561 | -87.74515 | 623 ft | 10 kts | 223° |
| 2026-05-03 23:47 | 41.78512 | -87.74582 | 622 ft | 10 kts | 233° |
| 2026-05-03 23:47 | 41.78522 | -87.74665 | 623 ft | 10 kts | 308° |
| 2026-05-03 23:48 | 41.78566 | -87.74731 | 619 ft | 9 kts | 315° |
| 2026-05-03 23:48 | 41.78616 | -87.74777 | 627 ft | 9 kts | 341° |
| 2026-05-03 23:48 | 41.78679 | -87.74784 | 622 ft | 9 kts | 10° |
| 2026-05-03 23:48 | 41.78732 | -87.74741 | 624 ft | 9 kts | 42° |
| 2026-05-03 23:49 | 41.78777 | -87.74684 | 628 ft | 9 kts | 43° |
| 2026-05-03 23:49 | 41.78820 | -87.74630 | 625 ft | 8 kts | 43° |
| 2026-05-03 23:49 | 41.78862 | -87.74578 | 619 ft | 8 kts | 42° |
| 2026-05-03 23:49 | 41.78905 | -87.74523 | 618 ft | 8 kts | 44° |
| 2026-05-03 23:50 | 41.78947 | -87.74470 | 618 ft | 8 kts | 43° |
| 2026-05-03 23:50 | 41.78974 | -87.74435 | 623 ft | 8 kts | 43° |
| 2026-05-03 23:50 | 41.79028 | -87.74367 | 626 ft | 8 kts | 43° |
| 2026-05-03 23:50 | 41.79076 | -87.74306 | 616 ft | 10 kts | 43° |
| 2026-05-03 23:51 | 41.79094 | -87.74284 | 624 ft | 0 kts | 42° |
| 2026-05-03 23:52 | 41.79111 | -87.74269 | 622 ft | 10 kts | 28° |
| 2026-05-03 23:52 | 41.79178 | -87.74322 | 626 ft | 12 kts | 268° |
| 2026-05-03 23:53 | 41.79166 | -87.74350 | 612 ft | 0 kts | 227° |
| 2026-05-03 23:53 | 41.79094 | -87.74444 | 616 ft | 46 kts | 223° |
| 2026-05-03 23:53 | 41.78656 | -87.74994 | 619 ft | 125 kts | 222° |
| 2026-05-03 23:54 | 41.77919 | -87.75880 | 1144 ft | 147 kts | 219° |
| 2026-05-03 23:54 | 41.77110 | -87.76792 | 2020 ft | 156 kts | 221° |
| 2026-05-03 23:54 | 41.76205 | -87.77776 | 2575 ft | 183 kts | 223° |
| 2026-05-03 23:54 | 41.75125 | -87.78906 | 2782 ft | 214 kts | 212° |
| 2026-05-03 23:55 | 41.73550 | -87.79206 | 3079 ft | 252 kts | 174° |
| 2026-05-03 23:55 | 41.71950 | -87.78033 | 3738 ft | 277 kts | 140° |
| 2026-05-03 23:55 | 41.70649 | -87.76100 | 4671 ft | 281 kts | 136° |
| 2026-05-03 23:55 | 41.69385 | -87.74069 | 5544 ft | 289 kts | 127° |
| 2026-05-03 23:56 | 41.68757 | -87.71490 | 6401 ft | 299 kts | 91° |
| 2026-05-03 23:56 | 41.69026 | -87.68739 | 7327 ft | 299 kts | 77° |
| 2026-05-03 23:56 | 41.69444 | -87.66006 | 8205 ft | 301 kts | 76° |
| 2026-05-03 23:56 | 41.69858 | -87.63244 | 9137 ft | 302 kts | 76° |
| 2026-05-03 23:57 | 41.70243 | -87.60475 | 10002 ft | 304 kts | 77° |
| 2026-05-03 23:57 | 41.70612 | -87.57635 | 10561 ft | 319 kts | 77° |
| 2026-05-03 23:57 | 41.70988 | -87.54587 | 10734 ft | 345 kts | 78° |
| 2026-05-03 23:57 | 41.71369 | -87.51330 | 11151 ft | 361 kts | 78° |
| 2026-05-03 23:58 | 41.71744 | -87.47986 | 11871 ft | 366 kts | 79° |
| 2026-05-03 23:58 | 41.72116 | -87.44598 | 12670 ft | 369 kts | 78° |
| 2026-05-03 23:58 | 41.72486 | -87.41181 | 13449 ft | 373 kts | 78° |
| 2026-05-03 23:58 | 41.72860 | -87.37715 | 14140 ft | 377 kts | 78° |
| 2026-05-03 23:59 | 41.73236 | -87.34223 | 14812 ft | 382 kts | 78° |
| 2026-05-03 23:59 | 41.73615 | -87.30688 | 15488 ft | 386 kts | 79° |
| 2026-05-03 23:59 | 41.73997 | -87.27116 | 16163 ft | 390 kts | 79° |
| 2026-05-03 23:59 | 41.74381 | -87.23508 | 16822 ft | 394 kts | 79° |
| 2026-05-04 00:00 | 41.74770 | -87.19852 | 17484 ft | 398 kts | 79° |
| 2026-05-04 00:00 | 41.75158 | -87.16198 | 18124 ft | 402 kts | 79° |
| 2026-05-04 00:00 | 41.75553 | -87.12469 | 18710 ft | 406 kts | 79° |
| 2026-05-04 00:00 | 41.75949 | -87.08711 | 19279 ft | 409 kts | 79° |
| 2026-05-04 00:01 | 41.76277 | -87.04907 | 19847 ft | 414 kts | 84° |
| 2026-05-04 00:01 | 41.76385 | -87.01028 | 20423 ft | 418 kts | 86° |
| 2026-05-04 00:01 | 41.76423 | -86.97119 | 20981 ft | 422 kts | 87° |
| 2026-05-04 00:01 | 41.76440 | -86.93165 | 21538 ft | 426 kts | 87° |
| 2026-05-04 00:02 | 41.76459 | -86.89189 | 22080 ft | 429 kts | 87° |
| 2026-05-04 00:02 | 41.76488 | -86.85170 | 22612 ft | 432 kts | 86° |
| 2026-05-04 00:02 | 41.76524 | -86.81132 | 23129 ft | 436 kts | 86° |
| 2026-05-04 00:02 | 41.76567 | -86.77055 | 23605 ft | 439 kts | 86° |
| 2026-05-04 00:03 | 41.76612 | -86.72948 | 24018 ft | 442 kts | 86° |
| 2026-05-04 00:03 | 41.76657 | -86.68807 | 24412 ft | 446 kts | 86° |
| 2026-05-04 00:03 | 41.76702 | -86.64637 | 24803 ft | 450 kts | 86° |
| 2026-05-04 00:03 | 41.76745 | -86.60438 | 25202 ft | 453 kts | 86° |
| 2026-05-04 00:04 | 41.76786 | -86.56204 | 25603 ft | 456 kts | 86° |
| 2026-05-04 00:04 | 41.76826 | -86.51934 | 25997 ft | 459 kts | 86° |
| 2026-05-04 00:04 | 41.76865 | -86.47632 | 26379 ft | 462 kts | 86° |
| 2026-05-04 00:04 | 41.76901 | -86.43370 | 26749 ft | 465 kts | 86° |
| 2026-05-04 00:05 | 41.76937 | -86.39017 | 27116 ft | 468 kts | 86° |
| 2026-05-04 00:05 | 41.76972 | -86.34650 | 27466 ft | 471 kts | 86° |
| 2026-05-04 00:05 | 41.77035 | -86.30244 | 27818 ft | 473 kts | 83° |
| 2026-05-04 00:05 | 41.77379 | -86.25858 | 28165 ft | 473 kts | 78° |
| 2026-05-04 00:06 | 41.77860 | -86.21487 | 28506 ft | 475 kts | 77° |
| 2026-05-04 00:06 | 41.78386 | -86.17103 | 28835 ft | 478 kts | 77° |
| 2026-05-04 00:06 | 41.78916 | -86.12698 | 29158 ft | 480 kts | 77° |
| 2026-05-04 00:06 | 41.79437 | -86.08257 | 29477 ft | 483 kts | 77° |
| 2026-05-04 00:07 | 41.79942 | -86.03794 | 29786 ft | 486 kts | 78° |
| 2026-05-04 00:07 | 41.80436 | -85.99302 | 30082 ft | 487 kts | 78° |
| 2026-05-04 00:07 | 41.80920 | -85.94813 | 30471 ft | 486 kts | 78° |
| 2026-05-04 00:07 | 41.81397 | -85.90332 | 30903 ft | 484 kts | 78° |
| 2026-05-04 00:08 | 41.81870 | -85.85872 | 31271 ft | 483 kts | 78° |
| 2026-05-04 00:08 | 41.82343 | -85.81403 | 31591 ft | 484 kts | 78° |
| 2026-05-04 00:08 | 41.82815 | -85.76943 | 31916 ft | 484 kts | 78° |
| 2026-05-04 00:08 | 41.83285 | -85.72483 | 32285 ft | 483 kts | 78° |
| 2026-05-04 00:09 | 41.83753 | -85.68027 | 32653 ft | 482 kts | 78° |
| 2026-05-04 00:09 | 41.84220 | -85.63571 | 32905 ft | 483 kts | 78° |
| 2026-05-04 00:09 | 41.85151 | -85.54650 | 32894 ft | 487 kts | 78° |
| 2026-05-04 00:10 | 41.86076 | -85.45680 | 32877 ft | 481 kts | 78° |
| 2026-05-04 00:10 | 41.86985 | -85.36811 | 32898 ft | 480 kts | 78° |
| 2026-05-04 00:11 | 41.87891 | -85.27931 | 32902 ft | 481 kts | 78° |
| 2026-05-04 00:11 | 41.88780 | -85.19030 | 32908 ft | 482 kts | 79° |
| 2026-05-04 00:12 | 41.89445 | -85.10059 | 32903 ft | 483 kts | 82° |
| 2026-05-04 00:12 | 41.90015 | -85.01123 | 32901 ft | 484 kts | 82° |
| 2026-05-04 00:13 | 41.90608 | -84.92126 | 32902 ft | 484 kts | 81° |
| 2026-05-04 00:13 | 41.91218 | -84.83133 | 32909 ft | 484 kts | 81° |
| 2026-05-04 00:14 | 41.91829 | -84.74117 | 32916 ft | 484 kts | 81° |
| 2026-05-04 00:14 | 41.92429 | -84.65115 | 32914 ft | 484 kts | 82° |
| 2026-05-04 00:15 | 41.93022 | -84.56100 | 32906 ft | 484 kts | 82° |
| 2026-05-04 00:15 | 41.93607 | -84.47103 | 32905 ft | 483 kts | 82° |
| 2026-05-04 00:16 | 41.94184 | -84.38116 | 32921 ft | 483 kts | 82° |
| 2026-05-04 00:16 | 41.94752 | -84.29181 | 32936 ft | 483 kts | 82° |
| 2026-05-04 00:17 | 41.95337 | -84.20184 | 32936 ft | 483 kts | 82° |
| 2026-05-04 00:17 | 41.95937 | -84.11206 | 32940 ft | 483 kts | 82° |
| 2026-05-04 00:18 | 41.96433 | -84.03695 | 32395 ft | 488 kts | 82° |
| 2026-05-04 00:18 | 41.96730 | -83.99127 | 31762 ft | 480 kts | 82° |
| 2026-05-04 00:18 | 41.97016 | -83.94675 | 31068 ft | 480 kts | 82° |
| 2026-05-04 00:19 | 41.97298 | -83.90269 | 30515 ft | 477 kts | 82° |
| 2026-05-04 00:19 | 41.97579 | -83.85843 | 30015 ft | 474 kts | 82° |
| 2026-05-04 00:19 | 41.97857 | -83.81452 | 29431 ft | 469 kts | 82° |
| 2026-05-04 00:19 | 41.98133 | -83.77051 | 28898 ft | 464 kts | 82° |
| 2026-05-04 00:20 | 41.98401 | -83.72760 | 28404 ft | 459 kts | 82° |
| 2026-05-04 00:20 | 41.98665 | -83.68506 | 27889 ft | 454 kts | 82° |
| 2026-05-04 00:20 | 41.98921 | -83.64356 | 27395 ft | 449 kts | 82° |
| 2026-05-04 00:20 | 41.99178 | -83.60186 | 26892 ft | 446 kts | 82° |
| 2026-05-04 00:21 | 41.99431 | -83.56051 | 26406 ft | 442 kts | 82° |
| 2026-05-04 00:21 | 41.99681 | -83.51936 | 25897 ft | 438 kts | 82° |
| 2026-05-04 00:21 | 41.99927 | -83.47864 | 25412 ft | 435 kts | 83° |
| 2026-05-04 00:21 | 42.00170 | -83.43823 | 24911 ft | 432 kts | 83° |
| 2026-05-04 00:22 | 42.00410 | -83.39804 | 24436 ft | 430 kts | 83° |
| 2026-05-04 00:22 | 42.00646 | -83.35823 | 24047 ft | 426 kts | 83° |
| 2026-05-04 00:22 | 42.00786 | -83.31831 | 23782 ft | 429 kts | 89° |
| 2026-05-04 00:22 | 42.00523 | -83.27802 | 23275 ft | 438 kts | 95° |
| 2026-05-04 00:23 | 42.00122 | -83.23632 | 22764 ft | 461 kts | 96° |
| 2026-05-04 00:23 | 41.99718 | -83.19315 | 22255 ft | 468 kts | 95° |
| 2026-05-04 00:23 | 41.99359 | -83.14958 | 21773 ft | 466 kts | 94° |
| 2026-05-04 00:23 | 41.99030 | -83.10642 | 21291 ft | 462 kts | 94° |
| 2026-05-04 00:24 | 41.98708 | -83.06356 | 20819 ft | 460 kts | 94° |
| 2026-05-04 00:24 | 41.98379 | -83.02101 | 20356 ft | 458 kts | 94° |
| 2026-05-04 00:24 | 41.98046 | -82.97845 | 19899 ft | 456 kts | 95° |
| 2026-05-04 00:24 | 41.97711 | -82.93609 | 19441 ft | 453 kts | 95° |
| 2026-05-04 00:25 | 41.97381 | -82.89466 | 18998 ft | 451 kts | 95° |
| 2026-05-04 00:25 | 41.97047 | -82.85292 | 18551 ft | 449 kts | 95° |
| 2026-05-04 00:25 | 41.96712 | -82.81133 | 18083 ft | 446 kts | 95° |
| 2026-05-04 00:25 | 41.96349 | -82.77009 | 17577 ft | 443 kts | 98° |
| 2026-05-04 00:26 | 41.95678 | -82.72977 | 17136 ft | 439 kts | 105° |
| 2026-05-04 00:26 | 41.94826 | -82.69047 | 16673 ft | 435 kts | 107° |
| 2026-05-04 00:26 | 41.93966 | -82.65171 | 16228 ft | 431 kts | 106° |
| 2026-05-04 00:26 | 41.93160 | -82.61318 | 15846 ft | 427 kts | 105° |
| 2026-05-04 00:27 | 41.92391 | -82.57478 | 15417 ft | 424 kts | 105° |
| 2026-05-04 00:27 | 41.91645 | -82.53674 | 14996 ft | 421 kts | 105° |
| 2026-05-04 00:27 | 41.90901 | -82.49880 | 14580 ft | 419 kts | 105° |
| 2026-05-04 00:27 | 41.90156 | -82.46108 | 14149 ft | 417 kts | 105° |
| 2026-05-04 00:28 | 41.89421 | -82.42401 | 13725 ft | 402 kts | 105° |
| 2026-05-04 00:28 | 41.88720 | -82.38861 | 13279 ft | 385 kts | 105° |
| 2026-05-04 00:28 | 41.88048 | -82.35457 | 12893 ft | 371 kts | 105° |
| 2026-05-04 00:28 | 41.87393 | -82.32141 | 12516 ft | 365 kts | 105° |
| 2026-05-04 00:29 | 41.86746 | -82.28866 | 12155 ft | 361 kts | 105° |
| 2026-05-04 00:29 | 41.86113 | -82.25673 | 11795 ft | 357 kts | 105° |
| 2026-05-04 00:29 | 41.85477 | -82.22480 | 11431 ft | 351 kts | 107° |
| 2026-05-04 00:29 | 41.84542 | -82.19503 | 11071 ft | 345 kts | 122° |
| 2026-05-04 00:30 | 41.83303 | -82.16800 | 10738 ft | 334 kts | 124° |
| 2026-05-04 00:30 | 41.82083 | -82.14215 | 10408 ft | 323 kts | 124° |
| 2026-05-04 00:30 | 41.80905 | -82.11710 | 10083 ft | 313 kts | 124° |
| 2026-05-04 00:30 | 41.79767 | -82.09269 | 9919 ft | 302 kts | 124° |
| 2026-05-04 00:31 | 41.78666 | -82.06892 | 9485 ft | 301 kts | 124° |
| 2026-05-04 00:31 | 41.77582 | -82.04539 | 9189 ft | 294 kts | 125° |
| 2026-05-04 00:31 | 41.76514 | -82.02218 | 8866 ft | 293 kts | 125° |
| 2026-05-04 00:31 | 41.75447 | -81.99896 | 8560 ft | 292 kts | 125° |
| 2026-05-04 00:32 | 41.74386 | -81.97585 | 8273 ft | 290 kts | 125° |
| 2026-05-04 00:32 | 41.73332 | -81.95292 | 7980 ft | 288 kts | 126° |
| 2026-05-04 00:32 | 41.72284 | -81.93014 | 7678 ft | 287 kts | 126° |
| 2026-05-04 00:32 | 41.71231 | -81.90741 | 7390 ft | 286 kts | 127° |
| 2026-05-04 00:33 | 41.70180 | -81.88533 | 7139 ft | 282 kts | 127° |
| 2026-05-04 00:33 | 41.68071 | -81.84101 | 6525 ft | 282 kts | 127° |
| 2026-05-04 00:33 | 41.67039 | -81.81880 | 6228 ft | 281 kts | 127° |
| 2026-05-04 00:34 | 41.66015 | -81.79671 | 5921 ft | 279 kts | 127° |
| 2026-05-04 00:34 | 41.64986 | -81.77486 | 5625 ft | 274 kts | 128° |
| 2026-05-04 00:34 | 41.63982 | -81.75366 | 5345 ft | 265 kts | 128° |
| 2026-05-04 00:34 | 41.62973 | -81.73360 | 5057 ft | 253 kts | 139° |
| 2026-05-04 00:35 | 41.61612 | -81.72106 | 4896 ft | 228 kts | 165° |
| 2026-05-04 00:35 | 41.60125 | -81.71550 | 4722 ft | 218 kts | 175° |
| 2026-05-04 00:35 | 41.58652 | -81.71158 | 4553 ft | 214 kts | 176° |
| 2026-05-04 00:35 | 41.57202 | -81.70777 | 4388 ft | 211 kts | 176° |
| 2026-05-04 00:36 | 41.55763 | -81.70393 | 4237 ft | 211 kts | 175° |
| 2026-05-04 00:36 | 41.54318 | -81.70013 | 4072 ft | 210 kts | 180° |
| 2026-05-04 00:36 | 41.52920 | -81.70214 | 3835 ft | 200 kts | 206° |
| 2026-05-04 00:36 | 41.51707 | -81.71026 | 3625 ft | 191 kts | 214° |
| 2026-05-04 00:37 | 41.50577 | -81.71906 | 3358 ft | 183 kts | 214° |
| 2026-05-04 00:37 | 41.49535 | -81.72729 | 3120 ft | 167 kts | 218° |
| 2026-05-04 00:37 | 41.48731 | -81.73702 | 3003 ft | 149 kts | 227° |
| 2026-05-04 00:37 | 41.48028 | -81.74665 | 2811 ft | 141 kts | 231° |
| 2026-05-04 00:38 | 41.47400 | -81.75618 | 2616 ft | 131 kts | 232° |
| 2026-05-04 00:38 | 41.46824 | -81.76522 | 2458 ft | 128 kts | 232° |
| 2026-05-04 00:38 | 41.46237 | -81.77451 | 2289 ft | 130 kts | 231° |
| 2026-05-04 00:38 | 41.45675 | -81.78340 | 2110 ft | 121 kts | 231° |
| 2026-05-04 00:39 | 41.45139 | -81.79188 | 1925 ft | 120 kts | 232° |
| 2026-05-04 00:39 | 41.44595 | -81.80052 | 1766 ft | 124 kts | 231° |
| 2026-05-04 00:39 | 41.44036 | -81.80930 | 1612 ft | 123 kts | 232° |
| 2026-05-04 00:39 | 41.43487 | -81.81812 | 1428 ft | 125 kts | 230° |
| 2026-05-04 00:40 | 41.42928 | -81.82712 | 1255 ft | 126 kts | 230° |
| 2026-05-04 00:40 | 41.42364 | -81.83608 | 1062 ft | 126 kts | 230° |
| 2026-05-04 00:40 | 41.41797 | -81.84501 | 898 ft | 125 kts | 230° |
| 2026-05-04 00:40 | 41.41244 | -81.85371 | 797 ft | 119 kts | 230° |
| 2026-05-04 00:41 | 41.40794 | -81.86077 | 786 ft | 71 kts | 230° |
| 2026-05-04 00:41 | 41.40580 | -81.86408 | 782 ft | 36 kts | 229° |
| 2026-05-04 00:41 | 41.40453 | -81.86593 | 780 ft | 23 kts | 219° |
| 2026-05-04 00:41 | 41.40317 | -81.86640 | 777 ft | 18 kts | 148° |
| 2026-05-04 00:42 | 41.40346 | -81.86514 | 777 ft | 16 kts | 43° |
| 2026-05-04 00:42 | 41.40424 | -81.86415 | 777 ft | 15 kts | 46° |
| 2026-05-04 00:42 | 41.40497 | -81.86316 | 780 ft | 15 kts | 46° |
| 2026-05-04 00:42 | 41.40574 | -81.86196 | 782 ft | 19 kts | 50° |
| 2026-05-04 00:43 | 41.40673 | -81.86042 | 785 ft | 24 kts | 50° |
| 2026-05-04 00:43 | 41.40788 | -81.85860 | 783 ft | 27 kts | 50° |
| 2026-05-04 00:43 | 41.40905 | -81.85674 | 782 ft | 25 kts | 50° |
| 2026-05-04 00:43 | 41.41015 | -81.85501 | 783 ft | 24 kts | 49° |
| 2026-05-04 00:44 | 41.41120 | -81.85339 | 784 ft | 23 kts | 51° |
| 2026-05-04 00:44 | 41.41218 | -81.85180 | 788 ft | 22 kts | 50° |
| 2026-05-04 00:44 | 41.41316 | -81.85027 | 788 ft | 21 kts | 49° |
| 2026-05-04 00:44 | 41.41409 | -81.84877 | 788 ft | 21 kts | 50° |
| 2026-05-04 00:45 | 41.41462 | -81.84755 | 786 ft | 7 kts | 97° |
| 2026-05-04 00:45 | 41.41441 | -81.84705 | 786 ft | 16 kts | 136° |
| 2026-05-04 00:45 | 41.41360 | -81.84563 | 790 ft | 20 kts | 111° |
| 2026-05-04 00:45 | 41.41287 | -81.84416 | 790 ft | 19 kts | 124° |
| 2026-05-04 00:46 | 41.41226 | -81.84304 | 793 ft | 12 kts | 133° |
| 2026-05-04 00:46 | 41.41178 | -81.84235 | 794 ft | 0 kts | 123° |